Terminal Aerodrome Forecast
Issued by NWS Bismarck, ND

Home | Current Version | Previous Version | Graphics & Text | Print | Product List | Glossary On
Versions: 1 2 3 4 5 6 7 8 9 10 11 12 13 14 15
781
FTUS43 KBIS 291130
TAFBIS
TAF
KBIS 291130Z 2912/3012 06007KT P6SM BKN100
     FM291700 09010KT P6SM SCT050 SCT140
     FM300200 06007KT P6SM SCT050=

USA.gov is the U.S. government's official web portal to all federal, state and local government web resources and services.